Time;durP1;ratioP1;P1;durP2;ratioP2;P2;SDS_P1;SDS_P2;PMS_P1;PMS_P2;Temp;Humidity;BMP_temperature;BMP_pressure;BME280_temperature;BME280_humidity;BME280_pressure;Samples;Min_cycle;Max_cycle;Signal;HPM_P1;HPM_P2
2022/09/23 00:01:49;;;;;;;2.00;1.02;;;;;;;16.01;44.12;98942.47;5034941;28;20041;-74
2022/09/23 00:04:14;;;;;;;3.20;1.00;;;;;;;15.99;44.24;98938.34;5054212;28;20029;-74
2022/09/23 00:06:40;;;;;;;1.30;0.80;;;;;;;16.01;44.10;98941.66;5054553;28;20457;-74
2022/09/23 00:09:05;;;;;;;3.92;1.10;;;;;;;15.95;44.32;98932.50;5037435;28;20032;-74
2022/09/23 00:11:31;;;;;;;0.88;0.65;;;;;;;15.96;44.04;98925.47;5037634;28;20480;-74
2022/09/23 00:13:58;;;;;;;1.80;1.02;;;;;;;15.93;44.04;98923.94;5037933;28;20155;-74
2022/09/23 00:16:25;;;;;;;1.50;1.00;;;;;;;15.89;44.33;98920.78;5037463;28;20045;-74
2022/09/23 00:18:51;;;;;;;1.47;1.00;;;;;;;15.84;44.30;98919.56;5037613;28;20389;-74
2022/09/23 00:21:17;;;;;;;3.42;0.98;;;;;;;15.82;44.56;98916.25;5037325;28;20021;-74
2022/09/23 00:23:42;;;;;;;1.13;0.80;;;;;;;15.82;44.67;98921.50;5037038;28;20037;-74
2022/09/23 00:26:09;;;;;;;1.33;0.80;;;;;;;15.78;44.54;98920.13;5037303;28;20038;-74
2022/09/23 00:28:34;;;;;;;1.50;0.90;;;;;;;15.74;44.75;98915.13;5021038;28;20036;-74
2022/09/23 00:31:05;;;;;;;2.22;1.00;;;;;;;15.72;44.77;98917.09;5020576;28;20502;-74
2022/09/23 00:33:30;;;;;;;2.35;1.13;;;;;;;15.68;44.93;98913.06;5037434;28;20021;-74
2022/09/23 00:36:03;;;;;;;9.35;1.17;;;;;;;15.60;44.94;98909.53;5037032;28;20534;-74
2022/09/23 00:38:28;;;;;;;1.95;1.00;;;;;;;15.58;45.16;98911.47;5037679;28;20131;-74
2022/09/23 00:40:54;;;;;;;1.40;1.00;;;;;;;15.59;45.04;98919.19;5036826;28;20111;-74
2022/09/23 00:43:34;;;;;;;2.88;0.90;;;;;;;15.55;45.35;98910.78;5036934;28;20041;-74
2022/09/23 00:46:00;;;;;;;1.92;0.95;;;;;;;15.53;45.37;98925.06;5036122;28;20116;-74
2022/09/23 00:48:25;;;;;;;3.38;1.00;;;;;;;15.49;45.35;98913.97;5053203;28;20032;-74
2022/09/23 00:50:52;;;;;;;1.80;1.00;;;;;;;15.46;45.55;98913.44;5036694;28;20029;-74
2022/09/23 00:53:20;;;;;;;1.58;1.10;;;;;;;15.42;45.55;98905.03;5053304;28;20056;-75
2022/09/23 00:55:51;;;;;;;1.80;1.10;;;;;;;15.46;45.43;98918.72;5037268;28;20508;-74
2022/09/23 00:58:19;;;;;;;2.08;1.00;;;;;;;15.40;45.39;98906.94;5054476;28;20028;-74
2022/09/23 01:00:45;;;;;;;1.37;0.90;;;;;;;15.44;45.54;98912.78;5036795;28;20034;-74
2022/09/23 01:03:11;;;;;;;1.35;0.90;;;;;;;15.41;45.61;98910.44;5052969;28;20036;-74
2022/09/23 01:05:38;;;;;;;1.92;1.00;;;;;;;15.40;45.40;98911.41;5036128;28;20044;-74
2022/09/23 01:08:04;;;;;;;2.60;1.00;;;;;;;15.37;45.25;98908.09;5036699;28;20087;-74
2022/09/23 01:10:35;;;;;;;1.63;1.02;;;;;;;15.39;45.46;98913.19;5036682;28;20029;-74
2022/09/23 01:13:35;;;;;;;4.00;1.00;;;;;;;15.36;45.25;98909.03;5020633;28;20029;-74
2022/09/23 01:16:44;;;;;;;3.08;1.00;;;;;;;15.33;45.41;98905.88;5051242;28;20057;-74
2022/09/23 01:19:16;;;;;;;1.73;1.20;;;;;;;15.30;45.63;98909.63;5012348;28;20084;-74
2022/09/23 01:22:10;;;;;;;1.40;1.00;;;;;;;15.26;45.63;98904.78;5012306;28;20176;-74
2022/09/23 01:24:45;;;;;;;1.60;1.10;;;;;;;15.23;45.71;98908.53;5011236;28;20049;-74
2022/09/23 01:27:35;;;;;;;2.25;1.33;;;;;;;15.18;45.88;98905.50;5011938;28;20045;-74
2022/09/23 01:30:37;;;;;;;2.85;0.85;;;;;;;15.14;45.89;98910.22;5012542;28;20066;-74
2022/09/23 01:33:14;;;;;;;1.42;1.05;;;;;;;15.11;45.80;98907.06;4995268;28;20038;-74
2022/09/23 01:36:02;;;;;;;1.83;1.00;;;;;;;15.08;45.80;98907.34;5012044;28;20521;-74
2022/09/23 01:38:27;;;;;;;3.88;1.00;;;;;;;15.00;45.75;98900.97;4995074;28;20044;-75
2022/09/23 01:41:23;;;;;;;1.40;0.90;;;;;;;15.01;45.90;98905.25;5011720;28;20042;-75
2022/09/23 01:43:58;;;;;;;2.85;1.00;;;;;;;14.93;45.89;98906.97;4995534;28;20034;-74
2022/09/23 01:46:35;;;;;;;1.40;1.05;;;;;;;14.93;46.12;98902.50;4979372;28;20413;-74
2022/09/23 01:49:21;;;;;;;1.67;1.10;;;;;;;14.89;46.21;98903.75;4996360;28;20146;-74
2022/09/23 01:51:50;;;;;;;2.53;1.00;;;;;;;14.88;45.98;98901.25;4978693;28;20042;-74
2022/09/23 01:54:23;;;;;;;1.75;1.00;;;;;;;14.84;46.07;98903.34;5036035;28;20051;-74
2022/09/23 01:56:51;;;;;;;1.98;1.00;;;;;;;14.81;46.05;98904.44;5035692;28;20040;-74
2022/09/23 01:59:28;;;;;;;2.63;0.98;;;;;;;14.75;46.04;98889.25;5019264;28;20033;-74
2022/09/23 02:02:04;;;;;;;3.67;0.93;;;;;;;14.74;46.32;98889.41;5019794;28;20404;-74
2022/09/23 02:04:46;;;;;;;1.30;0.80;;;;;;;14.75;46.39;98893.69;5052748;28;20037;-74
2022/09/23 02:07:19;;;;;;;1.30;0.80;;;;;;;14.73;46.62;98901.69;5020202;28;20056;-74
2022/09/23 02:09:46;;;;;;;1.77;1.00;;;;;;;14.71;46.67;98900.19;5035386;28;20385;-74
2022/09/23 02:12:16;;;;;;;2.08;1.30;;;;;;;14.68;46.69;98901.31;5035372;28;20029;-74
2022/09/23 02:15:09;;;;;;;1.35;1.08;;;;;;;14.69;46.72;98897.72;5019467;28;20490;-74
2022/09/23 02:17:47;;;;;;;1.38;0.93;;;;;;;14.65;46.59;98897.13;5051311;28;20057;-74
2022/09/23 02:20:14;;;;;;;1.48;0.90;;;;;;;14.63;46.85;98898.28;5035316;28;20041;-74
2022/09/23 02:22:41;;;;;;;1.40;0.93;;;;;;;14.64;46.64;98903.38;5035386;28;20029;-74
2022/09/23 02:25:08;;;;;;;3.65;1.10;;;;;;;14.58;46.77;98892.53;5034526;28;20476;-74
2022/09/23 02:27:52;;;;;;;3.25;1.10;;;;;;;14.61;46.71;98903.66;5035239;28;20399;-74
2022/09/23 02:30:20;;;;;;;1.73;1.10;;;;;;;14.59;46.61;98900.28;5051619;28;20021;-74
2022/09/23 02:32:48;;;;;;;1.35;0.95;;;;;;;14.57;46.85;98898.78;5035088;28;20032;-74
2022/09/23 02:35:14;;;;;;;1.10;0.70;;;;;;;14.53;46.77;98893.00;5051128;28;20381;-76
2022/09/23 02:38:17;;;;;;;1.45;0.93;;;;;;;14.52;46.80;98895.75;5051665;28;20024;-76
2022/09/23 02:41:04;;;;;;;2.13;1.00;;;;;;;14.48;46.95;98889.94;5052579;28;20147;-76
2022/09/23 02:43:47;;;;;;;1.23;0.80;;;;;;;14.46;46.76;98891.88;5051368;28;20033;-77
2022/09/23 02:46:13;;;;;;;1.23;0.85;;;;;;;14.47;46.93;98888.28;5036669;28;20043;-76
2022/09/23 02:48:49;;;;;;;1.80;1.05;;;;;;;14.45;47.06;98896.31;5035208;28;20025;-77
2022/09/23 02:51:14;;;;;;;1.67;0.85;;;;;;;14.42;47.03;98893.94;5034650;28;20029;-76
2022/09/23 02:53:40;;;;;;;1.02;0.80;;;;;;;14.43;47.08;98900.84;5051351;28;20087;-76
2022/09/23 02:56:17;;;;;;;1.13;0.85;;;;;;;14.41;47.34;98894.09;5034268;28;20041;-77
2022/09/23 02:58:45;;;;;;;1.30;0.90;;;;;;;14.32;46.91;98885.22;5034770;28;20090;-76
2022/09/23 03:01:36;;;;;;;1.67;1.02;;;;;;;14.41;46.98;98901.97;5034960;28;20029;-76
2022/09/23 03:04:20;;;;;;;1.58;1.00;;;;;;;14.39;47.28;98912.59;5050936;28;20385;-76
2022/09/23 03:06:56;;;;;;;1.50;1.00;;;;;;;14.36;46.88;98912.03;5052629;28;20032;-76
2022/09/23 03:09:33;;;;;;;1.88;1.05;;;;;;;14.38;46.79;98913.56;5051516;28;20033;-76
2022/09/23 03:12:09;;;;;;;2.20;0.85;;;;;;;14.34;47.01;98906.91;5034684;28;20115;-77
2022/09/23 03:14:40;;;;;;;1.92;1.08;;;;;;;14.37;47.16;98906.63;5034964;28;20095;-76
2022/09/23 03:17:10;;;;;;;1.02;0.75;;;;;;;14.36;47.12;98912.88;5051833;28;20036;-77
2022/09/23 03:19:43;;;;;;;2.00;1.00;;;;;;;14.37;47.37;98918.94;5018449;28;20029;-76
2022/09/23 03:22:36;;;;;;;1.60;1.00;;;;;;;14.35;47.45;98924.34;5018363;28;20579;-77
2022/09/23 03:25:05;;;;;;;2.95;0.90;;;;;;;14.35;47.39;98923.53;5056464;28;20097;-77
2022/09/23 03:27:31;;;;;;;1.40;1.00;;;;;;;14.34;47.57;98922.66;5020583;28;20416;-78
2022/09/23 03:29:56;;;;;;;1.33;0.82;;;;;;;14.32;47.52;98919.34;5020078;28;20127;-78
2022/09/23 03:32:23;;;;;;;1.48;1.00;;;;;;;14.30;47.71;98916.88;5020013;28;20465;-77
2022/09/23 03:34:50;;;;;;;1.67;1.00;;;;;;;14.32;47.87;98924.59;5035867;28;20044;-78
2022/09/23 03:37:34;;;;;;;4.05;1.02;;;;;;;14.33;47.96;98930.69;5038667;28;20051;-77
2022/09/23 03:40:12;;;;;;;1.58;0.95;;;;;;;14.29;47.65;98930.97;5056958;28;20067;-77
2022/09/23 03:42:38;;;;;;;1.92;1.00;;;;;;;14.25;47.79;98934.84;5023919;28;20036;-78
2022/09/23 03:45:08;;;;;;;1.80;0.90;;;;;;;14.24;47.65;98925.28;5057030;28;20039;-76
2022/09/23 03:47:33;;;;;;;1.60;1.08;;;;;;;14.23;47.85;98934.16;5040992;28;20058;-77
2022/09/23 03:49:59;;;;;;;2.55;1.10;;;;;;;14.16;47.70;98921.69;5040159;28;20048;-77
2022/09/23 03:52:25;;;;;;;1.60;0.90;;;;;;;14.22;47.77;98929.84;5023544;28;20116;-79
2022/09/23 03:54:51;;;;;;;1.58;1.00;;;;;;;14.21;47.71;98932.63;5039865;28;20049;-77
2022/09/23 03:57:16;;;;;;;1.95;1.17;;;;;;;14.17;47.82;98939.94;5040071;28;20044;-76
2022/09/23 03:59:42;;;;;;;1.85;1.17;;;;;;;14.19;47.91;98939.81;5040087;28;20645;-74
2022/09/23 04:02:07;;;;;;;4.18;1.00;;;;;;;14.17;47.99;98936.47;5048334;28;20032;-75
2022/09/23 04:04:34;;;;;;;2.35;1.10;;;;;;;14.21;47.98;98937.88;5057529;28;20036;-73
2022/09/23 04:07:00;;;;;;;1.38;0.90;;;;;;;14.18;47.94;98936.31;5048380;28;20049;-79
2022/09/23 04:09:25;;;;;;;4.32;1.92;;;;;;;14.57;56.27;98935.56;5037336;28;20021;-74
2022/09/23 04:11:51;;;;;;;5.50;2.20;;;;;;;15.33;56.82;98934.81;5065179;28;20036;-77
2022/09/23 04:14:17;;;;;;;10.52;1.95;;;;;;;15.91;55.10;98929.34;5043491;28;20128;-76
2022/09/23 04:16:43;;;;;;;4.00;1.50;;;;;;;15.86;51.14;98925.50;5047261;28;20498;-79
2022/09/23 04:19:09;;;;;;;6.43;1.88;;;;;;;15.70;49.66;98929.56;5036809;28;20095;-76
2022/09/23 04:21:35;;;;;;;5.07;1.42;;;;;;;15.58;48.72;98928.09;5043962;28;20438;-77
2022/09/23 04:24:00;;;;;;;2.25;1.10;;;;;;;15.58;47.97;98935.97;5047047;28;20124;-78
2022/09/23 04:26:26;;;;;;;4.15;1.20;;;;;;;15.88;46.46;98931.47;5037244;28;20056;-78
2022/09/23 04:28:53;;;;;;;6.90;1.40;;;;;;;16.57;53.02;98945.88;5047392;28;20047;-79
2022/09/23 04:31:19;;;;;;;3.20;1.33;;;;;;;16.45;48.05;98944.41;5061000;28;20075;-76
2022/09/23 04:33:44;;;;;;;1.30;0.90;;;;;;;16.21;47.60;98929.19;5030246;28;20416;-75
2022/09/23 04:36:10;;;;;;;2.30;1.25;;;;;;;16.14;46.89;98946.56;5029851;28;20476;-74
2022/09/23 04:38:35;;;;;;;8.40;1.38;;;;;;;16.26;52.83;98945.38;5044834;28;20104;-77
2022/09/23 04:41:02;;;;;;;5.07;1.00;;;;;;;16.22;49.19;98951.91;5028246;28;20048;-75
2022/09/23 04:43:27;;;;;;;5.50;1.20;;;;;;;16.13;48.61;98961.53;5052674;28;20037;-78
2022/09/23 04:45:58;;;;;;;7.60;1.42;;;;;;;16.14;51.01;98952.63;5060424;28;20097;-77
2022/09/23 04:48:23;;;;;;;8.02;1.13;;;;;;;16.12;48.66;98956.41;5048396;28;20028;-73
2022/09/23 04:50:49;;;;;;;2.20;1.23;;;;;;;16.05;47.90;98943.84;5019838;28;20044;-78
2022/09/23 04:53:15;;;;;;;6.00;1.02;;;;;;;16.10;49.90;98959.19;5036100;28;20446;-76
2022/09/23 04:55:41;;;;;;;3.03;1.20;;;;;;;16.51;52.26;98958.78;5036513;28;20461;-76
2022/09/23 04:58:08;;;;;;;12.63;1.65;;;;;;;16.53;49.62;98959.50;5020069;28;20079;-78
2022/09/23 05:00:35;;;;;;;3.72;1.60;;;;;;;16.50;48.35;98952.69;5052109;28;20045;-79
2022/09/23 05:03:01;;;;;;;3.78;1.40;;;;;;;16.54;47.44;98948.78;5052589;28;20029;-77
2022/09/23 05:05:26;;;;;;;2.08;1.48;;;;;;;16.72;46.10;98961.97;5037357;28;20033;-76
2022/09/23 05:07:53;;;;;;;4.20;1.45;;;;;;;17.19;44.17;98947.72;5020514;28;20124;-78
2022/09/23 05:10:19;;;;;;;5.03;1.50;;;;;;;17.51;43.06;98952.34;5037149;28;20029;-77
2022/09/23 05:12:45;;;;;;;3.03;1.73;;;;;;;17.80;42.47;98953.00;5036849;28;20040;-77
2022/09/23 05:15:11;;;;;;;2.03;1.60;;;;;;;17.84;41.62;98944.59;5036688;28;20408;-77
2022/09/23 05:17:37;;;;;;;2.97;1.55;;;;;;;18.75;39.75;98947.47;5036725;28;20074;-77
2022/09/23 05:20:03;;;;;;;3.30;1.52;;;;;;;20.10;36.73;98946.91;5036396;28;20036;-79
2022/09/23 05:22:29;;;;;;;4.00;1.90;;;;;;;20.80;35.46;98953.16;5053233;28;20029;-77
2022/09/23 05:24:55;;;;;;;3.42;2.08;;;;;;;21.83;33.21;98957.81;5036519;28;20473;-78
2022/09/23 05:27:20;;;;;;;2.55;1.60;;;;;;;22.42;32.14;98952.59;5053165;28;20035;-76
2022/09/23 05:29:46;;;;;;;2.95;1.80;;;;;;;22.42;31.97;98960.59;5036378;28;20040;-78
2022/09/23 05:32:14;;;;;;;2.10;1.60;;;;;;;22.41;32.51;98954.44;5019403;28;20095;-78
2022/09/23 05:34:39;;;;;;;2.13;1.60;;;;;;;22.77;31.42;98964.19;5020053;28;20071;-78
2022/09/23 05:37:05;;;;;;;3.78;1.92;;;;;;;23.49;30.20;98960.50;5020432;28;20033;-77
2022/09/23 05:39:30;;;;;;;2.88;1.70;;;;;;;24.45;28.47;98961.56;5036192;28;20071;-78
2022/09/23 05:41:58;;;;;;;2.53;1.70;;;;;;;24.58;28.47;98958.16;5019303;28;20029;-77
2022/09/23 05:44:27;;;;;;;;;;;;;;;25.37;27.38;98961.88;5036945;28;20532;-79
2022/09/23 05:46:52;;;;;;;4.45;2.10;;;;;;;26.11;26.49;98956.38;5052448;28;20369;-77
2022/09/23 05:49:18;;;;;;;2.17;1.85;;;;;;;26.76;25.73;98961.59;5035919;28;20029;-79
2022/09/23 05:51:45;;;;;;;2.88;1.85;;;;;;;27.34;24.85;98952.47;5035813;28;20059;-81
2022/09/23 05:54:11;;;;;;;4.22;1.70;;;;;;;27.88;24.02;98951.88;5052437;28;20045;-78
2022/09/23 05:56:37;;;;;;;8.95;2.20;;;;;;;28.37;23.43;98951.91;5019324;28;20459;-77
2022/09/23 05:59:04;;;;;;;2.30;1.75;;;;;;;28.76;23.05;98949.72;5018112;28;20429;-75
2022/09/23 06:01:32;;;;;;;6.38;2.00;;;;;;;29.12;22.25;98939.84;5051780;28;20029;-77
2022/09/23 06:03:58;;;;;;;5.97;1.63;;;;;;;29.51;21.25;98940.19;5051763;28;20025;-76
2022/09/23 06:06:32;;;;;;;3.15;1.70;;;;;;;29.88;20.94;98943.44;5035746;28;20028;-77
2022/09/23 06:08:58;;;;;;;3.25;1.60;;;;;;;30.21;21.08;98949.19;5018395;28;20029;-77
2022/09/23 06:11:26;;;;;;;2.28;1.40;;;;;;;30.46;20.14;98948.88;5045543;28;20066;-76
2022/09/23 06:13:55;;;;;;;6.18;1.60;;;;;;;30.79;20.26;98949.94;5037999;28;20094;-76
2022/09/23 06:16:20;;;;;;;3.10;1.60;;;;;;;31.10;19.83;98953.97;5037324;28;20070;-76
2022/09/23 06:18:46;;;;;;;3.35;1.50;;;;;;;31.42;19.51;98952.56;5071712;28;20035;-75
2022/09/23 06:21:15;;;;;;;4.53;1.42;;;;;;;31.66;18.79;98945.06;5037863;28;20055;-76
2022/09/23 06:23:41;;;;;;;6.80;1.40;;;;;;;31.84;18.57;98944.78;5054230;28;20028;-77
2022/09/23 06:26:08;;;;;;;2.75;1.48;;;;;;;32.03;18.65;98937.16;5054148;28;20032;-76
2022/09/23 06:28:36;;;;;;;3.70;1.25;;;;;;;32.27;18.37;98942.31;5070379;28;20506;-79
2022/09/23 06:31:07;;;;;;;3.90;1.27;;;;;;;32.56;17.95;98950.13;5070885;28;20032;-76
2022/09/23 06:33:32;;;;;;;2.72;1.23;;;;;;;32.78;17.90;98950.09;5038189;28;20603;-75
2022/09/23 06:36:04;;;;;;;2.72;1.13;;;;;;;33.01;17.76;98951.63;5054224;28;20146;-77
2022/09/23 06:38:29;;;;;;;3.13;1.38;;;;;;;33.21;17.26;98944.75;5054188;28;20032;-76
2022/09/23 06:40:56;;;;;;;4.78;1.20;;;;;;;33.36;17.19;98948.38;5054144;28;20040;-80
2022/09/23 06:43:24;;;;;;;2.80;1.20;;;;;;;33.53;16.96;98948.19;5070676;28;20085;-80
2022/09/23 06:45:52;;;;;;;;;;;;;;;33.68;16.47;98943.94;5038922;28;20034;-75
2022/09/23 06:48:18;;;;;;;1.80;1.25;;;;;;;33.93;16.80;98943.25;5053265;28;19909;-80
2022/09/23 06:50:44;;;;;;;2.38;1.17;;;;;;;34.18;16.32;98945.22;5054108;28;20103;-76
2022/09/23 06:53:11;;;;;;;3.58;1.30;;;;;;;34.24;16.66;98949.59;5046803;28;20028;-75
2022/09/23 06:55:37;;;;;;;2.50;1.30;;;;;;;33.84;16.90;98947.53;5058146;28;20039;-74
2022/09/23 06:58:02;;;;;;;4.70;1.10;;;;;;;33.54;19.21;98949.00;5044772;28;20066;-72
2022/09/23 07:00:28;;;;;;;6.03;1.83;;;;;;;33.34;18.50;98945.13;5025188;28;20036;-78
2022/09/23 07:02:55;;;;;;;8.18;2.35;;;;;;;32.68;17.34;98956.22;5027603;28;20083;-78
2022/09/23 07:05:21;;;;;;;7.30;1.90;;;;;;;32.11;18.80;98957.53;5026481;28;20404;-73
2022/09/23 07:07:47;;;;;;;5.55;1.80;;;;;;;32.18;18.88;98960.88;5043881;28;20037;-74
2022/09/23 07:10:14;;;;;;;9.43;1.83;;;;;;;32.35;18.22;98957.25;5042548;28;20036;-74
2022/09/23 07:12:40;;;;;;;4.10;1.70;;;;;;;32.61;17.42;98963.72;5059193;28;20036;-73
2022/09/23 07:15:06;;;;;;;4.68;1.90;;;;;;;32.99;17.18;98975.41;5027471;28;20133;-75
2022/09/23 07:17:32;;;;;;;3.13;1.52;;;;;;;33.50;16.67;98975.78;5044002;28;20492;-74
2022/09/23 07:19:57;;;;;;;4.43;1.80;;;;;;;34.31;15.92;98978.31;5025851;28;20040;-77
2022/09/23 07:22:24;;;;;;;2.50;1.50;;;;;;;34.79;15.79;98978.94;5042197;28;20053;-74
2022/09/23 07:24:50;;;;;;;7.57;1.70;;;;;;;35.98;14.41;98985.03;5041027;28;20112;-74
2022/09/23 07:27:18;;;;;;;5.47;1.92;;;;;;;36.98;13.59;98971.34;5044882;28;20125;-75
2022/09/23 07:29:48;;;;;;;4.70;1.50;;;;;;;38.25;12.77;98990.13;5061865;28;20020;-73
2022/09/23 07:32:13;;;;;;;3.92;1.52;;;;;;;39.75;11.75;98997.47;5029692;28;20063;-73
2022/09/23 07:34:39;;;;;;;3.67;1.45;;;;;;;41.10;10.40;98996.09;5059431;28;20476;-73
2022/09/23 07:37:04;;;;;;;4.23;1.40;;;;;;;42.16;10.06;99000.88;5060632;28;20388;-73
2022/09/23 07:39:30;;;;;;;3.13;1.03;;;;;;;42.42;9.02;98997.34;5041602;28;20060;-75
2022/09/23 07:41:55;;;;;;;10.77;1.40;;;;;;;42.45;9.14;98993.97;5044178;28;20116;-74
2022/09/23 07:44:21;;;;;;;23.97;1.17;;;;;;;42.77;8.87;99002.84;5027119;28;20032;-73
2022/09/23 07:46:47;;;;;;;14.63;1.60;;;;;;;43.60;8.33;99000.84;5058081;28;20032;-73
2022/09/23 07:49:12;;;;;;;13.83;1.00;;;;;;;44.17;7.79;99000.38;5026782;28;20028;-73
2022/09/23 07:51:38;;;;;;;2.50;0.90;;;;;;;44.46;7.46;99004.19;5041946;28;20040;-77
2022/09/23 07:54:06;;;;;;;1.42;0.95;;;;;;;44.37;6.90;98995.22;5041714;28;20119;-74
2022/09/23 07:56:32;;;;;;;3.78;1.13;;;;;;;44.50;7.70;99001.56;5045282;28;20027;-75
2022/09/23 07:59:02;;;;;;;6.40;1.10;;;;;;;44.24;7.66;98995.16;5047109;28;20021;-76
2022/09/23 08:01:31;;;;;;;2.22;1.10;;;;;;;43.01;8.02;98989.41;5041597;28;20806;-77
2022/09/23 08:03:58;;;;;;;5.75;1.50;;;;;;;40.41;9.90;98986.28;5026952;28;20025;-76
2022/09/23 08:06:24;;;;;;;3.13;1.10;;;;;;;38.39;11.15;98986.69;5027011;28;20117;-76
2022/09/23 08:08:49;;;;;;;12.18;1.73;;;;;;;36.92;12.37;98984.97;5028233;28;20503;-74
2022/09/23 08:11:15;;;;;;;5.68;1.77;;;;;;;35.76;12.83;98994.34;5029717;28;20115;-72
2022/09/23 08:13:40;;;;;;;6.10;2.63;;;;;;;34.38;13.80;98982.41;5017639;28;20499;-75
2022/09/23 08:16:06;;;;;;;6.18;2.30;;;;;;;33.92;14.24;98984.13;5032205;28;20482;-71
2022/09/23 08:18:32;;;;;;;3.40;1.73;;;;;;;33.29;14.58;98980.25;5029321;28;20021;-73
2022/09/23 08:20:57;;;;;;;2.15;1.40;;;;;;;32.82;15.03;98970.13;5024668;28;20036;-74
2022/09/23 08:23:23;;;;;;;3.75;1.20;;;;;;;32.37;15.09;98980.25;5062257;28;20162;-74
2022/09/23 08:25:58;;;;;;;3.95;1.35;;;;;;;32.34;15.72;98980.75;5047333;28;20021;-73
2022/09/23 08:28:24;;;;;;;2.20;1.13;;;;;;;31.93;15.91;98969.44;5030525;28;20025;-70
2022/09/23 08:30:50;;;;;;;2.05;1.08;;;;;;;30.89;16.26;98977.06;5043851;28;20493;-72
2022/09/23 08:33:16;;;;;;;3.30;1.65;;;;;;;30.67;17.79;98964.31;5046052;28;20023;-72
2022/09/23 08:35:41;;;;;;;4.95;1.70;;;;;;;30.77;17.40;98966.34;5061226;28;20029;-72
2022/09/23 08:38:07;;;;;;;5.85;1.17;;;;;;;30.95;17.00;98970.72;5030284;28;20032;-71
2022/09/23 08:40:37;;;;;;;8.63;1.48;;;;;;;30.88;17.70;98969.22;5037619;28;20033;-72
2022/09/23 08:43:05;;;;;;;21.23;1.65;;;;;;;31.22;17.75;98983.56;5044273;28;20563;-74
2022/09/23 08:45:33;;;;;;;16.17;1.73;;;;;;;31.41;17.29;98969.78;5029808;28;20022;-74
2022/09/23 08:48:11;;;;;;;13.63;1.30;;;;;;;31.69;17.45;98966.16;5028709;28;20028;-76
2022/09/23 08:50:51;;;;;;;5.82;1.42;;;;;;;31.83;17.39;98966.63;5035469;28;20035;-73
2022/09/23 08:53:26;;;;;;;5.05;1.15;;;;;;;31.97;16.58;98967.06;5047020;28;20025;-75
2022/09/23 08:55:53;;;;;;;5.00;1.20;;;;;;;32.11;17.07;98957.53;5044012;28;20018;-76
2022/09/23 08:58:49;;;;;;;31.98;1.48;;;;;;;32.25;16.84;98944.44;5045305;28;20036;-76
2022/09/23 09:01:29;;;;;;;19.83;1.40;;;;;;;32.38;16.93;98954.84;5061498;28;20055;-75
2022/09/23 09:04:13;;;;;;;4.07;1.13;;;;;;;32.49;16.78;98955.75;5060140;28;20028;-77
2022/09/23 09:07:05;;;;;;;6.05;1.60;;;;;;;32.45;17.26;98947.34;5059683;28;20619;-79
2022/09/23 09:09:55;;;;;;;9.95;1.33;;;;;;;31.58;17.04;98959.84;5044702;28;20035;-75
2022/09/23 09:12:27;;;;;;;2.22;1.08;;;;;;;30.82;18.46;98953.00;5060285;28;20028;-72
2022/09/23 09:15:26;;;;;;;2.47;1.20;;;;;;;30.12;19.03;98962.19;5062553;28;20139;-73
2022/09/23 09:18:13;;;;;;;5.38;1.10;;;;;;;29.61;19.82;98963.81;5044477;28;20033;-74
2022/09/23 09:20:41;;;;;;;3.15;1.33;;;;;;;29.07;20.13;98955.84;5052106;28;20127;-79
2022/09/23 09:23:26;;;;;;;;;;;;;;;28.64;21.93;98957.78;5041507;28;20535;-79
2022/09/23 09:25:53;;;;;;;8.80;1.20;;;;;;;28.17;22.48;98958.38;5055261;28;20033;-76
2022/09/23 09:28:44;;;;;;;4.22;1.50;;;;;;;27.63;23.39;98971.56;5059311;28;20076;-75
2022/09/23 09:31:25;;;;;;;4.78;1.33;;;;;;;27.07;23.96;98982.16;5021283;28;20029;-74
2022/09/23 09:34:25;;;;;;;3.05;1.20;;;;;;;26.70;25.26;98990.03;5047073;28;20044;-75
2022/09/23 09:36:56;;;;;;;3.60;1.05;;;;;;;26.53;25.52;98991.53;5039303;28;20555;-78
2022/09/23 09:39:22;;;;;;;2.75;1.20;;;;;;;26.33;25.33;98992.47;5041600;28;20037;-73
2022/09/23 09:41:50;;;;;;;1.60;1.08;;;;;;;26.12;26.10;98993.59;5005730;28;20047;-75
2022/09/23 09:44:48;;;;;;;2.28;1.15;;;;;;;25.92;26.20;99006.16;5007895;28;20112;-76
2022/09/23 09:47:14;;;;;;;;;;;;;;;25.73;27.05;99008.72;5040564;28;20046;-76
2022/09/23 09:49:42;;;;;;;3.65;1.30;;;;;;;25.50;27.37;99011.00;5043225;28;19965;-79
2022/09/23 09:52:28;;;;;;;4.10;1.30;;;;;;;25.34;27.80;99018.41;5022692;28;20463;-80
2022/09/23 09:54:58;;;;;;;3.78;1.20;;;;;;;25.19;28.50;99013.25;5017352;28;20112;-76
2022/09/23 09:57:36;;;;;;;2.00;1.27;;;;;;;25.00;28.84;99003.38;4995656;28;20419;-87
2022/09/23 10:00:26;;;;;;;4.53;1.33;;;;;;;24.96;29.31;99008.31;5018008;28;20037;-87
2022/09/23 10:02:53;;;;;;;2.97;1.10;;;;;;;24.99;29.18;98991.88;5051411;28;20025;-86
2022/09/23 10:05:42;;;;;;;4.85;1.33;;;;;;;25.24;29.16;98996.63;5032434;28;20108;-77
2022/09/23 10:08:22;;;;;;;3.58;1.20;;;;;;;25.52;28.63;98983.03;5040885;28;20160;-81
2022/09/23 10:10:54;;;;;;;4.70;1.15;;;;;;;25.59;28.83;98989.19;5021340;28;20029;-77
2022/09/23 10:13:22;;;;;;;4.43;1.30;;;;;;;25.87;28.68;99006.00;5030559;28;20037;-77
2022/09/23 10:15:48;;;;;;;2.20;1.30;;;;;;;26.05;28.43;99008.84;5050677;28;20097;-78
2022/09/23 10:18:21;;;;;;;2.30;0.98;;;;;;;26.49;27.78;99007.22;5028199;28;20029;-80
2022/09/23 10:20:46;;;;;;;3.25;1.23;;;;;;;26.92;27.84;99008.44;5030529;28;20173;-77
2022/09/23 10:23:16;;;;;;;4.95;1.00;;;;;;;27.31;27.40;99003.84;5030572;28;20123;-78
2022/09/23 10:25:43;;;;;;;3.90;1.15;;;;;;;27.65;26.86;99008.88;5058608;28;20032;-79
2022/09/23 10:28:40;;;;;;;5.68;1.52;;;;;;;28.00;26.41;99009.16;5042099;28;20032;-80
2022/09/23 10:31:14;;;;;;;5.28;1.35;;;;;;;28.24;26.18;98998.53;5047925;28;20123;-83
2022/09/23 10:33:59;;;;;;;8.55;1.40;;;;;;;28.46;25.93;99001.56;5033817;28;20029;-83
2022/09/23 10:36:26;;;;;;;4.07;1.10;;;;;;;28.58;25.58;98990.91;5036006;28;20044;-79
2022/09/23 10:46:36;;;;;;;8.80;1.40;;;;;;;28.71;25.51;98990.69;5018937;28;20037;-79
2022/09/23 10:47:50;;;;;;;3.78;1.30;;;;;;;28.62;26.04;98978.66;5038216;28;20507;-74
2022/09/23 10:50:28;;;;;;;6.35;1.50;;;;;;;28.52;26.16;98979.16;5036533;28;20029;-74
2022/09/23 10:52:59;;;;;;;6.65;1.40;;;;;;;28.44;26.20;98990.25;5052670;28;20041;-73
2022/09/23 10:55:40;;;;;;;5.32;1.55;;;;;;;28.33;26.31;98987.25;5052445;28;20067;-74
2022/09/23 10:58:23;;;;;;;4.03;1.50;;;;;;;28.17;26.55;98979.84;5065834;28;20091;-75
2022/09/23 11:01:12;;;;;;;5.38;1.25;;;;;;;28.00;26.59;98963.53;5049441;28;20021;-72
2022/09/23 11:03:49;;;;;;;6.35;1.58;;;;;;;27.86;26.86;98965.53;5065551;28;20497;-74
2022/09/23 11:06:52;;;;;;;2.97;1.42;;;;;;;27.66;26.97;98963.09;5049519;28;20036;-73
2022/09/23 11:09:30;;;;;;;2.08;1.40;;;;;;;27.46;27.29;98967.84;5065523;28;20067;-73
2022/09/23 11:12:12;;;;;;;;;;;;;;;27.29;27.23;98964.84;5051873;28;20022;-73
2022/09/23 11:14:56;;;;;;;3.42;1.40;;;;;;;27.05;27.43;98952.06;5034069;28;19942;-72
2022/09/23 11:17:25;;;;;;;4.00;1.50;;;;;;;27.00;27.34;98951.09;5052045;28;20025;-73
2022/09/23 11:19:57;;;;;;;3.92;1.40;;;;;;;26.96;27.33;98956.06;5067750;28;20086;-74
2022/09/23 11:22:37;;;;;;;4.03;1.35;;;;;;;26.98;27.85;98953.16;5068588;28;20059;-73
2022/09/23 11:25:15;;;;;;;4.20;1.38;;;;;;;26.85;28.03;98946.06;5052381;28;20064;-74
2022/09/23 11:27:45;;;;;;;11.23;1.25;;;;;;;26.74;27.98;98946.75;5051421;28;20029;-72
2022/09/23 11:30:12;;;;;;;3.90;1.30;;;;;;;26.62;28.11;98943.94;5051120;28;20032;-73
2022/09/23 11:33:01;;;;;;;2.47;1.40;;;;;;;26.46;28.16;98946.09;5033980;28;20076;-73
2022/09/23 11:35:32;;;;;;;1.88;1.20;;;;;;;26.30;28.46;98943.94;5051087;28;20047;-73
2022/09/23 11:38:06;;;;;;;2.75;1.40;;;;;;;26.12;28.86;98940.09;5034659;28;20514;-72
2022/09/23 11:40:36;;;;;;;3.92;1.30;;;;;;;25.97;28.55;98939.56;5050813;28;20025;-72
2022/09/23 11:43:08;;;;;;;7.43;1.45;;;;;;;25.89;29.18;98937.09;5033910;28;20033;-73
2022/09/23 11:45:36;;;;;;;3.60;1.48;;;;;;;25.76;29.15;98937.94;5035297;28;20021;-73
2022/09/23 11:48:30;;;;;;;2.45;1.48;;;;;;;25.59;29.15;98934.94;5034220;28;20036;-75
2022/09/23 11:50:59;;;;;;;4.60;1.45;;;;;;;25.42;29.47;98921.19;5013144;28;20044;-73
2022/09/23 11:53:27;;;;;;;3.00;1.38;;;;;;;25.33;29.90;98930.44;4997117;28;20083;-74
2022/09/23 11:56:29;;;;;;;2.75;1.40;;;;;;;25.15;29.75;98933.75;5030186;28;20124;-73
2022/09/23 11:59:03;;;;;;;3.42;1.45;;;;;;;25.03;30.28;98929.03;5019004;28;20067;-73
2022/09/23 12:01:34;;;;;;;4.47;1.40;;;;;;;24.94;30.38;98932.94;5017130;28;20069;-75